Time;durP1;ratioP1;P1;durP2;ratioP2;P2;SDS_P1;SDS_P2;PMS_P1;PMS_P2;Temp;Humidity;BMP_temperature;BMP_pressure;BME280_temperature;BME280_humidity;BME280_pressure;Samples;Min_cycle;Max_cycle;Signal;HPM_P1;HPM_P2
2024/01/08 00:01:37;;;;;;;1.10;1.10;;;0.60;1.00;;;;;;5039222;28;20060;-85
2024/01/08 00:04:03;;;;;;;1.10;1.10;;;0.60;1.00;;;;;;5049932;28;20048;-86
2024/01/08 00:06:29;;;;;;;1.10;1.10;;;0.60;1.00;;;;;;5041292;28;20048;-85
2024/01/08 00:08:56;;;;;;;1.10;1.10;;;0.60;63.30;;;;;;5043545;28;20048;-86
2024/01/08 00:11:22;;;;;;;1.10;1.10;;;0.60;99.90;;;;;;5049429;28;20046;-87
2024/01/08 00:13:47;;;;;;;1.10;1.10;;;0.70;99.90;;;;;;5046651;28;20036;-86
2024/01/08 00:16:13;;;;;;;1.10;1.10;;;0.60;99.90;;;;;;5028584;28;20143;-84
2024/01/08 00:18:39;;;;;;;1.10;1.10;;;0.50;63.70;;;;;;5047265;28;20211;-86
2024/01/08 00:21:05;;;;;;;1.10;1.10;;;0.60;1.00;;;;;;5044003;28;20494;-85
2024/01/08 00:23:35;;;;;;;1.10;1.10;;;0.50;1.00;;;;;;5030036;28;20045;-85
2024/01/08 00:26:00;;;;;;;1.10;1.10;;;0.60;25.30;;;;;;5044297;28;20053;-86
2024/01/08 00:28:26;;;;;;;1.10;1.10;;;0.50;18.70;;;;;;5028669;28;20033;-85
2024/01/08 00:30:55;;;;;;;1.10;1.10;;;0.50;17.30;;;;;;5028681;28;20056;-85
2024/01/08 00:33:21;;;;;;;1.10;1.10;;;0.40;29.10;;;;;;5047708;28;20044;-86
2024/01/08 00:35:46;;;;;;;1.10;1.10;;;0.50;95.50;;;;;;5029180;28;20098;-86
2024/01/08 00:38:12;;;;;;;1.10;1.10;;;0.40;99.90;;;;;;5028131;28;20052;-86
2024/01/08 00:40:38;;;;;;;1.10;1.10;;;0.40;99.90;;;;;;5045784;28;20055;-87
2024/01/08 00:43:04;;;;;;;1.10;1.10;;;0.50;16.10;;;;;;5055263;28;20127;-86
2024/01/08 00:45:30;;;;;;;1.20;1.20;;;0.40;49.60;;;;;;5027216;28;20466;-86
2024/01/08 00:47:55;;;;;;;1.10;1.10;;;0.50;48.10;;;;;;5046644;28;20048;-86
2024/01/08 00:50:21;;;;;;;1.10;1.10;;;0.40;70.30;;;;;;5046006;28;20071;-86
2024/01/08 00:52:47;;;;;;;1.10;1.10;;;0.40;99.90;;;;;;5048310;28;20054;-86
2024/01/08 00:55:13;;;;;;;1.10;1.10;;;0.50;99.90;;;;;;5028542;28;20402;-86
2024/01/08 00:57:39;;;;;;;1.10;1.10;;;0.60;99.90;;;;;;5044370;28;20486;-86
2024/01/08 01:00:06;;;;;;;1.10;1.10;;;0.60;99.90;;;;;;5031400;28;20131;-86
2024/01/08 01:02:32;;;;;;;1.10;1.10;;;0.60;99.90;;;;;;5023467;28;20136;-86
2024/01/08 01:04:58;;;;;;;1.10;1.10;;;0.70;99.90;;;;;;5048584;28;20127;-86
2024/01/08 01:07:24;;;;;;;1.10;1.10;;;0.70;99.90;;;;;;5027949;28;20367;-86
2024/01/08 01:09:50;;;;;;;1.10;1.10;;;0.80;99.90;;;;;;5017441;28;20057;-86
2024/01/08 01:12:16;;;;;;;1.10;1.10;;;0.80;99.90;;;;;;5002924;28;20055;-86
2024/01/08 01:14:42;;;;;;;1.10;1.10;;;0.90;99.90;;;;;;5051835;28;20053;-86
2024/01/08 01:17:08;;;;;;;1.10;1.10;;;0.90;99.90;;;;;;5029066;28;20044;-87
2024/01/08 01:19:33;;;;;;;1.10;1.10;;;1.00;99.90;;;;;;5029110;28;20045;-87
2024/01/08 01:21:59;;;;;;;1.05;1.05;;;1.00;90.10;;;;;;5044493;28;20048;-87
2024/01/08 01:24:25;;;;;;;1.02;1.02;;;1.10;97.30;;;;;;5048182;28;20098;-86
2024/01/08 01:26:51;;;;;;;1.00;1.00;;;1.10;1.00;;;;;;5064588;28;20500;-87
2024/01/08 01:29:16;;;;;;;1.00;1.00;;;1.30;99.90;;;;;;5029441;28;20052;-84
2024/01/08 01:31:43;;;;;;;1.00;1.00;;;1.40;99.90;;;;;;5048938;28;20049;-86
2024/01/08 01:34:12;;;;;;;1.00;1.00;;;1.30;1.00;;;;;;5043649;28;20173;-87
2024/01/08 01:36:38;;;;;;;1.05;1.05;;;1.40;1.00;;;;;;5013432;28;20052;-86
2024/01/08 01:39:04;;;;;;;1.10;1.10;;;1.40;1.00;;;;;;5035606;28;20048;-86
2024/01/08 01:41:33;;;;;;;1.00;1.00;;;1.40;1.00;;;;;;5046378;28;20082;-86
2024/01/08 01:43:59;;;;;;;1.00;1.00;;;1.40;1.00;;;;;;5041938;28;20102;-86
2024/01/08 01:46:34;;;;;;;1.00;1.00;;;1.50;1.00;;;;;;5045807;28;20114;-87
2024/01/08 01:49:00;;;;;;;0.98;0.98;;;1.50;1.00;;;;;;5057299;28;20497;-87
2024/01/08 01:51:26;;;;;;;1.00;1.00;;;1.50;1.00;;;;;;5040559;28;20063;-87
2024/01/08 01:53:52;;;;;;;1.02;1.02;;;1.60;1.00;;;;;;5019911;28;20053;-87
2024/01/08 01:56:18;;;;;;;1.00;1.00;;;1.70;1.00;;;;;;5042913;28;20040;-86
2024/01/08 01:58:46;;;;;;;1.00;1.00;;;1.60;1.00;;;;;;5046283;28;20127;-87
2024/01/08 02:01:12;;;;;;;1.00;1.00;;;1.60;1.00;;;;;;5038978;28;20110;-86
2024/01/08 02:03:39;;;;;;;1.00;1.00;;;1.70;1.00;;;;;;5031969;28;20037;-88
2024/01/08 02:06:09;;;;;;;1.00;1.00;;;1.60;1.00;;;;;;5030560;28;20052;-87
2024/01/08 02:08:36;;;;;;;1.00;1.00;;;1.60;1.00;;;;;;5024449;28;20843;-87
2024/01/08 02:11:03;;;;;;;1.00;1.00;;;1.70;1.00;;;;;;5017957;28;20059;-87
2024/01/08 02:13:29;;;;;;;1.00;1.00;;;1.70;1.00;;;;;;5039918;28;20048;-87
2024/01/08 02:15:55;;;;;;;1.00;1.00;;;1.70;1.00;;;;;;5029076;28;20088;-85
2024/01/08 02:18:20;;;;;;;1.00;1.00;;;1.80;1.00;;;;;;5047659;28;20767;-86
2024/01/08 02:20:46;;;;;;;1.20;1.20;;;1.80;1.00;;;;;;5048861;28;20127;-87
2024/01/08 02:23:12;;;;;;;1.00;1.00;;;1.80;1.00;;;;;;5048554;28;20127;-87
2024/01/08 02:25:38;;;;;;;1.00;1.00;;;1.80;1.00;;;;;;5046400;28;20102;-86
2024/01/08 02:28:04;;;;;;;1.00;1.00;;;1.90;1.00;;;;;;5050105;28;20124;-86
2024/01/08 02:30:29;;;;;;;1.00;1.00;;;1.80;1.00;;;;;;5045795;28;20573;-87
2024/01/08 02:32:55;;;;;;;1.00;1.00;;;1.90;1.00;;;;;;5046769;28;20527;-88
2024/01/08 02:35:21;;;;;;;1.00;1.00;;;1.90;1.00;;;;;;5056075;28;20139;-87
2024/01/08 02:37:47;;;;;;;1.00;1.00;;;1.80;1.00;;;;;;5031067;28;20067;-87
2024/01/08 02:40:12;;;;;;;1.00;1.00;;;1.80;1.00;;;;;;5049426;28;20050;-88
2024/01/08 02:42:40;;;;;;;1.00;1.00;;;1.90;1.00;;;;;;5054648;28;20040;-86
2024/01/08 02:45:07;;;;;;;1.00;1.00;;;1.90;1.00;;;;;;5032775;28;20456;-86
2024/01/08 02:47:37;;;;;;;1.00;1.00;;;1.90;15.00;;;;;;5032940;28;20040;-88
2024/01/08 02:50:05;;;;;;;1.00;1.00;;;1.90;4.20;;;;;;5036470;28;20052;-87
2024/01/08 02:52:31;;;;;;;1.00;1.00;;;2.00;64.90;;;;;;5066316;28;20056;-87
2024/01/08 02:54:57;;;;;;;1.00;1.00;;;1.90;42.90;;;;;;5052783;28;20126;-87
2024/01/08 02:57:22;;;;;;;1.00;1.00;;;1.90;72.80;;;;;;5049967;28;20198;-88
2024/01/08 02:59:48;;;;;;;1.00;1.00;;;1.90;99.90;;;;;;5053054;28;20037;-87
2024/01/08 03:02:14;;;;;;;1.00;1.00;;;2.00;99.90;;;;;;5068192;28;20054;-87
2024/01/08 03:04:39;;;;;;;1.00;1.00;;;1.90;81.90;;;;;;5033120;28;20044;-88
2024/01/08 03:07:05;;;;;;;1.00;1.00;;;2.00;99.90;;;;;;5032621;28;20075;-88
2024/01/08 03:09:31;;;;;;;1.00;1.00;;;1.90;82.50;;;;;;5051408;28;21782;-87
2024/01/08 03:11:56;;;;;;;1.00;1.00;;;1.80;89.30;;;;;;5051588;28;20051;-87
2024/01/08 03:14:22;;;;;;;1.10;1.10;;;2.00;73.30;;;;;;5032392;28;20462;-88
2024/01/08 03:16:48;;;;;;;1.00;1.00;;;2.00;39.80;;;;;;5036956;28;20044;-88
2024/01/08 03:19:14;;;;;;;1.10;1.10;;;1.90;49.70;;;;;;5052324;28;20382;-89
2024/01/08 03:21:39;;;;;;;1.00;1.00;;;2.00;99.90;;;;;;5051337;28;20079;-88
2024/01/08 03:24:05;;;;;;;1.00;1.00;;;2.00;57.80;;;;;;5052120;28;20119;-88
2024/01/08 03:26:31;;;;;;;1.05;1.05;;;2.00;15.00;;;;;;5051440;28;20055;-88
2024/01/08 03:28:58;;;;;;;1.00;1.00;;;2.00;99.90;;;;;;5065037;28;20049;-89
2024/01/08 03:31:24;;;;;;;1.00;1.00;;;2.00;72.40;;;;;;5053018;28;20044;-88
2024/01/08 03:33:49;;;;;;;1.00;1.00;;;2.00;88.50;;;;;;5053421;28;20131;-90
2024/01/08 03:36:15;;;;;;;1.10;1.10;;;2.10;80.20;;;;;;5050584;28;20102;-87
2024/01/08 03:38:42;;;;;;;1.00;1.00;;;2.10;93.00;;;;;;5055170;28;20048;-90
2024/01/08 03:41:07;;;;;;;1.00;1.00;;;2.10;34.00;;;;;;5037389;28;20056;-89
2024/01/08 03:43:33;;;;;;;1.00;1.00;;;2.10;15.60;;;;;;5035373;28;20438;-86
2024/01/08 03:45:59;;;;;;;1.00;1.00;;;2.10;98.20;;;;;;5039778;28;20532;-91
2024/01/08 03:48:24;;;;;;;1.10;1.10;;;2.10;99.90;;;;;;5053498;28;20050;-89
2024/01/08 03:50:50;;;;;;;1.10;1.10;;;2.20;99.90;;;;;;5034958;28;20052;-88
2024/01/08 03:53:16;;;;;;;1.10;1.10;;;2.20;99.90;;;;;;5037687;28;20048;-90
2024/01/08 03:55:42;;;;;;;1.20;1.20;;;2.10;74.70;;;;;;5036908;28;20071;-89
2024/01/08 03:58:08;;;;;;;1.17;1.17;;;2.20;99.90;;;;;;5036760;28;20075;-91
2024/01/08 04:00:34;;;;;;;1.10;1.10;;;2.20;99.90;;;;;;5052198;28;20076;-89
2024/01/08 04:02:59;;;;;;;1.10;1.10;;;2.20;99.90;;;;;;5052232;28;20044;-90
2024/01/08 04:05:25;;;;;;;1.10;1.10;;;2.20;14.20;;;;;;5035535;28;20043;-88
2024/01/08 04:07:51;;;;;;;1.10;1.10;;;2.20;1.00;;;;;;5050676;28;20041;-90
2024/01/08 04:10:17;;;;;;;1.10;1.10;;;2.20;1.00;;;;;;5035065;28;20045;-91
2024/01/08 04:12:43;;;;;;;1.10;1.10;;;2.20;1.00;;;;;;5051111;28;20047;-89
2024/01/08 04:15:09;;;;;;;1.17;1.17;;;2.20;1.00;;;;;;5052675;28;20036;-93
2024/01/08 04:17:34;;;;;;;1.13;1.13;;;2.20;1.00;;;;;;5036579;28;20106;-90
2024/01/08 04:20:00;;;;;;;1.20;1.20;;;2.20;1.00;;;;;;5048654;28;20494;-88
2024/01/08 04:22:26;;;;;;;1.20;1.20;;;2.30;27.10;;;;;;5037008;28;20105;-93
2024/01/08 04:24:52;;;;;;;1.20;1.20;;;2.20;1.00;;;;;;5036180;28;20040;-90
2024/01/08 04:27:17;;;;;;;1.20;1.20;;;2.20;1.00;;;;;;5035124;28;20044;-90
2024/01/08 04:29:43;;;;;;;1.20;1.20;;;2.20;1.00;;;;;;5033215;28;20102;-91
2024/01/08 04:32:09;;;;;;;1.10;1.10;;;2.20;1.00;;;;;;5052168;28;20044;-91
2024/01/08 04:34:35;;;;;;;1.20;1.20;;;2.20;1.00;;;;;;5037074;28;20072;-92
2024/01/08 04:37:01;;;;;;;1.20;1.20;;;2.20;1.00;;;;;;5034403;28;20052;-91
2024/01/08 04:39:26;;;;;;;1.17;1.17;;;2.20;1.00;;;;;;5034536;28;20059;-93
2024/01/08 04:41:52;;;;;;;1.20;1.20;;;2.20;1.00;;;;;;5034028;28;20047;-91
2024/01/08 04:44:18;;;;;;;1.20;1.20;;;2.20;1.00;;;;;;5033684;28;20514;-92
2024/01/08 04:46:46;;;;;;;1.40;1.33;;;2.20;1.00;;;;;;5034154;28;20045;-92
2024/01/08 04:49:12;;;;;;;1.17;1.17;;;2.20;1.00;;;;;;5070938;28;21137;-89
2024/01/08 04:51:37;;;;;;;1.20;1.20;;;2.20;1.00;;;;;;5036702;28;20473;-90
2024/01/08 04:54:04;;;;;;;1.10;1.10;;;2.20;1.00;;;;;;5034372;28;20049;-91
2024/01/08 04:56:30;;;;;;;1.10;1.10;;;2.20;1.00;;;;;;5041323;28;20103;-90
2024/01/08 04:58:56;;;;;;;1.20;1.20;;;2.20;1.00;;;;;;5032011;28;20516;-91
2024/01/08 05:01:22;;;;;;;1.20;1.20;;;2.20;1.00;;;;;;5046568;28;20049;-92
2024/01/08 05:03:48;;;;;;;1.20;1.20;;;2.30;14.40;;;;;;5048779;28;20051;-90
2024/01/08 05:06:14;;;;;;;1.20;1.20;;;2.30;67.10;;;;;;5034494;28;20048;-92
2024/01/08 05:08:40;;;;;;;1.30;1.30;;;2.20;86.30;;;;;;5032479;28;20044;-89
2024/01/08 05:11:06;;;;;;;1.20;1.20;;;2.30;1.00;;;;;;5043154;28;20051;-91
2024/01/08 05:13:40;;;;;;;1.20;1.20;;;2.20;1.00;;;;;;5049632;28;20044;-93
2024/01/08 05:16:06;;;;;;;1.17;1.17;;;2.20;1.00;;;;;;5030558;28;20045;-91
2024/01/08 05:18:32;;;;;;;1.20;1.20;;;2.20;1.00;;;;;;5051825;28;20052;-90
2024/01/08 05:20:58;;;;;;;1.27;1.27;;;2.20;1.00;;;;;;5046914;28;20044;-89
2024/01/08 05:23:24;;;;;;;1.20;1.20;;;2.20;1.00;;;;;;5052793;28;20048;-90
2024/01/08 05:25:50;;;;;;;1.20;1.20;;;2.20;1.00;;;;;;5052466;28;20048;-91
2024/01/08 05:28:16;;;;;;;1.20;1.20;;;2.20;1.00;;;;;;5033724;28;20079;-90
2024/01/08 05:30:42;;;;;;;1.20;1.20;;;2.20;1.00;;;;;;5050867;28;20087;-90
2024/01/08 05:33:07;;;;;;;1.20;1.20;;;2.20;1.00;;;;;;5050902;28;20087;-89
2024/01/08 05:35:35;;;;;;;1.30;1.30;;;2.20;1.00;;;;;;5053252;28;20043;-92
2024/01/08 05:38:01;;;;;;;1.20;1.20;;;2.20;1.00;;;;;;5049598;28;20513;-90
2024/01/08 05:40:27;;;;;;;1.20;1.20;;;2.20;1.00;;;;;;5032091;28;20040;-90
2024/01/08 05:42:53;;;;;;;1.20;1.20;;;2.10;1.00;;;;;;5048006;28;20102;-91
2024/01/08 05:45:21;;;;;;;1.20;1.20;;;2.10;1.00;;;;;;5050772;28;20040;-91
2024/01/08 05:47:47;;;;;;;1.30;1.30;;;2.10;1.00;;;;;;5046024;28;20032;-90
2024/01/08 05:50:16;;;;;;;1.20;1.20;;;2.10;1.00;;;;;;5048256;28;20094;-93
2024/01/08 05:52:43;;;;;;;1.20;1.20;;;2.00;1.00;;;;;;5028164;28;20059;-90
2024/01/08 05:55:13;;;;;;;1.20;1.20;;;2.10;1.00;;;;;;5030471;28;20052;-89
2024/01/08 05:57:40;;;;;;;1.20;1.20;;;2.10;1.00;;;;;;5030862;28;20080;-89
2024/01/08 06:00:07;;;;;;;1.30;1.30;;;2.10;1.00;;;;;;5048125;28;20045;-91
2024/01/08 06:02:32;;;;;;;1.13;1.13;;;2.00;1.00;;;;;;5033244;28;20113;-90
2024/01/08 06:04:58;;;;;;;1.10;1.10;;;2.00;1.00;;;;;;5031658;28;20450;-89
2024/01/08 06:07:24;;;;;;;1.25;1.25;;;2.00;1.00;;;;;;5033453;28;20123;-91
2024/01/08 06:09:50;;;;;;;1.20;1.20;;;2.00;1.00;;;;;;5039642;28;20070;-89
2024/01/08 06:12:15;;;;;;;1.20;1.20;;;2.10;95.70;;;;;;5032276;28;20055;-88
2024/01/08 06:14:41;;;;;;;1.20;1.20;;;2.00;95.80;;;;;;5033133;28;20512;-90
2024/01/08 06:17:08;;;;;;;1.20;1.20;;;2.00;74.80;;;;;;5051805;28;20059;-89
2024/01/08 06:19:34;;;;;;;1.15;1.15;;;2.00;97.90;;;;;;5034555;28;20056;-90
2024/01/08 06:22:00;;;;;;;1.17;1.17;;;2.10;99.90;;;;;;5036223;28;20036;-90
2024/01/08 06:24:26;;;;;;;1.20;1.20;;;2.00;99.90;;;;;;5034027;28;20105;-88
2024/01/08 06:26:52;;;;;;;1.13;1.13;;;2.00;99.90;;;;;;5034121;28;20130;-88
2024/01/08 06:29:18;;;;;;;1.20;1.20;;;2.00;99.60;;;;;;5054003;28;20068;-90
2024/01/08 06:31:45;;;;;;;1.20;1.20;;;2.00;99.90;;;;;;5067504;28;20052;-88
2024/01/08 06:34:11;;;;;;;1.10;1.10;;;2.00;99.90;;;;;;5050744;28;20041;-90
2024/01/08 06:36:38;;;;;;;1.10;1.10;;;2.00;99.90;;;;;;5033885;28;20049;-90
2024/01/08 06:39:05;;;;;;;1.25;1.25;;;2.00;99.90;;;;;;5050522;28;20447;-88
2024/01/08 06:41:31;;;;;;;1.20;1.20;;;2.10;99.90;;;;;;5051444;28;20206;-89
2024/01/08 06:43:56;;;;;;;1.20;1.20;;;2.10;99.90;;;;;;5051083;28;20525;-90
2024/01/08 06:46:22;;;;;;;1.30;1.30;;;2.00;99.90;;;;;;5050396;28;20448;-88
2024/01/08 06:48:48;;;;;;;1.25;1.25;;;2.00;99.90;;;;;;5031626;28;20045;-90
2024/01/08 06:51:14;;;;;;;1.20;1.20;;;2.10;99.90;;;;;;5033175;28;20134;-87
2024/01/08 06:53:40;;;;;;;1.58;1.48;;;2.00;99.90;;;;;;5033011;28;20044;-88
2024/01/08 06:56:06;;;;;;;1.30;1.30;;;2.00;99.90;;;;;;5034149;28;20047;-88
2024/01/08 06:58:32;;;;;;;1.25;1.25;;;2.10;99.90;;;;;;5032722;28;20085;-88
2024/01/08 07:00:57;;;;;;;1.50;1.40;;;2.10;99.90;;;;;;5038641;28;20072;-91
2024/01/08 07:03:24;;;;;;;1.20;1.20;;;2.10;99.90;;;;;;5033695;28;20054;-87
2024/01/08 07:05:50;;;;;;;1.20;1.20;;;2.20;99.90;;;;;;5034365;28;20043;-89
2024/01/08 07:08:16;;;;;;;1.20;1.20;;;2.10;99.90;;;;;;5047806;28;20051;-87
2024/01/08 07:10:41;;;;;;;1.20;1.20;;;2.10;99.90;;;;;;5033501;28;20132;-86
2024/01/08 07:13:07;;;;;;;1.30;1.30;;;2.10;99.90;;;;;;5048451;28;20047;-88
2024/01/08 07:15:37;;;;;;;1.20;1.20;;;2.10;99.90;;;;;;5049030;28;20109;-87
2024/01/08 07:18:03;;;;;;;1.23;1.23;;;2.10;99.90;;;;;;5032174;28;20045;-87
2024/01/08 07:20:29;;;;;;;1.30;1.30;;;2.20;99.90;;;;;;5030206;28;20039;-87
2024/01/08 07:22:55;;;;;;;1.30;1.30;;;2.20;99.90;;;;;;5032335;28;20131;-86
2024/01/08 07:25:21;;;;;;;1.30;1.30;;;2.10;99.90;;;;;;5049053;28;20048;-89
2024/01/08 07:27:47;;;;;;;1.20;1.20;;;2.10;99.90;;;;;;5033409;28;20044;-90
2024/01/08 07:30:13;;;;;;;1.27;1.27;;;2.20;99.90;;;;;;5037333;28;20049;-91
2024/01/08 07:32:39;;;;;;;1.25;1.25;;;2.20;99.90;;;;;;5052288;28;20048;-89
2024/01/08 07:35:05;;;;;;;1.30;1.30;;;2.20;99.90;;;;;;5048224;28;20067;-89
2024/01/08 07:37:31;;;;;;;1.20;1.20;;;2.20;99.90;;;;;;5048928;28;20090;-87
2024/01/08 07:39:57;;;;;;;1.30;1.30;;;2.20;99.90;;;;;;5031939;28;20075;-85
2024/01/08 07:42:22;;;;;;;1.30;1.30;;;2.10;99.90;;;;;;5029983;28;20048;-85
2024/01/08 07:44:48;;;;;;;1.30;1.30;;;2.20;99.90;;;;;;5029843;28;20119;-87
2024/01/08 07:47:14;;;;;;;1.20;1.20;;;2.30;99.90;;;;;;5067630;28;20036;-87
2024/01/08 07:49:40;;;;;;;1.30;1.30;;;2.30;99.90;;;;;;5034773;28;20101;-89
2024/01/08 07:52:06;;;;;;;1.42;1.38;;;2.20;99.90;;;;;;5047730;28;20071;-88
2024/01/08 07:54:32;;;;;;;1.30;1.30;;;2.30;99.90;;;;;;5051714;28;20118;-86
2024/01/08 07:56:57;;;;;;;1.20;1.20;;;2.30;99.90;;;;;;5051708;28;20044;-88
2024/01/08 07:59:23;;;;;;;1.20;1.20;;;2.30;99.90;;;;;;5032570;28;20044;-88
2024/01/08 08:01:49;;;;;;;1.30;1.30;;;2.30;99.90;;;;;;5049078;28;20048;-87
2024/01/08 08:04:15;;;;;;;1.20;1.20;;;2.30;29.90;;;;;;5050557;28;20049;-87
2024/01/08 08:06:41;;;;;;;1.30;1.30;;;2.30;99.90;;;;;;5049867;28;20052;-87
2024/01/08 08:09:07;;;;;;;1.20;1.20;;;2.40;99.90;;;;;;5036554;28;20048;-85
2024/01/08 08:11:33;;;;;;;1.30;1.30;;;2.40;99.90;;;;;;5030540;28;20588;-87
2024/01/08 08:13:59;;;;;;;1.30;1.30;;;2.30;69.60;;;;;;5050526;28;20051;-87
2024/01/08 08:16:24;;;;;;;1.30;1.30;;;2.40;99.90;;;;;;5049399;28;20052;-85
2024/01/08 08:18:50;;;;;;;1.27;1.27;;;2.40;1.00;;;;;;5033892;28;20123;-85
2024/01/08 08:21:17;;;;;;;1.20;1.20;;;2.40;1.00;;;;;;5047030;28;21480;-85
2024/01/08 08:23:43;;;;;;;1.30;1.30;;;2.40;24.70;;;;;;5049451;28;20052;-88
2024/01/08 08:26:08;;;;;;;1.30;1.30;;;2.40;98.50;;;;;;5048393;28;20048;-85
2024/01/08 08:28:34;;;;;;;1.20;1.20;;;2.50;28.50;;;;;;5030464;28;20119;-86
2024/01/08 08:31:00;;;;;;;1.27;1.27;;;2.50;1.00;;;;;;5027045;28;20076;-86
2024/01/08 08:33:26;;;;;;;1.30;1.30;;;2.50;1.00;;;;;;5048958;28;20211;-87
2024/01/08 08:35:51;;;;;;;1.20;1.20;;;2.50;1.00;;;;;;5049238;28;20559;-87
2024/01/08 08:38:17;;;;;;;1.30;1.30;;;2.50;1.00;;;;;;5048777;28;20485;-85
2024/01/08 08:40:44;;;;;;;1.20;1.20;;;2.60;1.00;;;;;;5072735;28;20075;-85
2024/01/08 08:43:09;;;;;;;1.20;1.20;;;2.50;1.00;;;;;;5034570;28;20101;-87
2024/01/08 08:45:35;;;;;;;1.27;1.27;;;2.60;1.00;;;;;;5032786;28;20052;-85
2024/01/08 08:48:01;;;;;;;1.20;1.20;;;2.60;1.00;;;;;;5056118;28;20044;-87
2024/01/08 08:50:27;;;;;;;1.20;1.20;;;2.60;1.00;;;;;;5032371;28;20056;-84
2024/01/08 08:52:53;;;;;;;1.20;1.20;;;2.70;1.00;;;;;;5048716;28;20486;-87
2024/01/08 08:55:19;;;;;;;1.30;1.30;;;2.70;1.00;;;;;;5049653;28;20038;-84
2024/01/08 08:57:44;;;;;;;1.30;1.30;;;2.70;1.00;;;;;;5034605;28;20058;-84
2024/01/08 09:00:19;;;;;;;1.20;1.20;;;2.70;1.00;;;;;;5049232;28;20119;-86
2024/01/08 09:02:45;;;;;;;1.20;1.20;;;2.70;1.00;;;;;;5051265;28;20055;-84
2024/01/08 09:05:11;;;;;;;1.30;1.30;;;2.70;1.00;;;;;;5042265;28;20051;-83
2024/01/08 09:07:37;;;;;;;1.20;1.20;;;2.80;1.00;;;;;;5053722;28;20063;-86
2024/01/08 09:10:03;;;;;;;1.20;1.20;;;2.70;1.00;;;;;;5034851;28;20041;-84
2024/01/08 09:12:29;;;;;;;1.20;1.20;;;2.80;1.00;;;;;;5048867;28;20048;-87
2024/01/08 09:14:55;;;;;;;1.10;1.10;;;2.80;1.00;;;;;;5048554;28;20036;-85
2024/01/08 09:17:21;;;;;;;1.20;1.20;;;2.80;1.00;;;;;;5031027;28;20044;-85
2024/01/08 09:19:49;;;;;;;1.27;1.27;;;2.80;1.00;;;;;;5032955;28;20524;-87
2024/01/08 09:22:15;;;;;;;1.25;1.25;;;2.80;1.00;;;;;;5047175;28;20115;-87
2024/01/08 09:24:41;;;;;;;1.30;1.30;;;2.80;1.00;;;;;;5063161;28;20139;-87
2024/01/08 09:27:07;;;;;;;1.20;1.20;;;2.80;1.00;;;;;;5049656;28;20047;-84
2024/01/08 09:29:32;;;;;;;1.10;1.10;;;2.80;1.00;;;;;;5050558;28;20728;-85
2024/01/08 09:31:58;;;;;;;1.20;1.20;;;2.80;1.00;;;;;;5050609;28;20032;-84
2024/01/08 09:34:24;;;;;;;1.17;1.17;;;2.80;1.00;;;;;;5049428;28;20048;-84
2024/01/08 09:36:50;;;;;;;1.50;1.40;;;2.90;1.00;;;;;;5048676;28;20468;-84
2024/01/08 09:39:16;;;;;;;1.50;1.40;;;2.80;1.00;;;;;;5047573;28;20171;-84
2024/01/08 09:41:47;;;;;;;1.20;1.20;;;2.90;1.00;;;;;;5046909;28;20131;-84
2024/01/08 09:44:15;;;;;;;1.10;1.10;;;2.80;1.00;;;;;;5046899;28;20040;-84
2024/01/08 09:46:47;;;;;;;1.30;1.30;;;2.90;99.90;;;;;;5032748;28;20044;-84
2024/01/08 09:49:14;;;;;;;1.20;1.20;;;2.90;99.90;;;;;;5033515;28;20107;-83
2024/01/08 09:51:42;;;;;;;1.30;1.30;;;2.90;99.90;;;;;;5068655;28;20045;-84
2024/01/08 09:54:08;;;;;;;1.50;1.40;;;2.90;99.90;;;;;;5034661;28;20141;-84
2024/01/08 09:56:33;;;;;;;1.30;1.30;;;3.00;99.90;;;;;;5049373;28;20082;-85
2024/01/08 09:58:59;;;;;;;1.23;1.23;;;3.00;99.90;;;;;;5057184;28;20131;-83
2024/01/08 10:01:26;;;;;;;1.30;1.30;;;3.00;99.90;;;;;;5052205;28;20536;-84
2024/01/08 10:03:53;;;;;;;1.50;1.40;;;2.90;99.90;;;;;;5056619;28;20048;-84
2024/01/08 10:06:18;;;;;;;1.30;1.30;;;2.90;99.90;;;;;;5035436;28;20052;-82
2024/01/08 10:08:45;;;;;;;1.50;1.40;;;3.00;99.90;;;;;;5056596;28;20746;-83
2024/01/08 10:11:12;;;;;;;1.42;1.33;;;3.00;99.90;;;;;;5054606;28;20505;-82
2024/01/08 10:13:40;;;;;;;1.45;1.38;;;3.00;99.90;;;;;;5052235;28;20049;-85
2024/01/08 10:16:08;;;;;;;1.60;1.50;;;3.00;99.90;;;;;;5039914;28;20052;-85
2024/01/08 10:18:33;;;;;;;1.30;1.30;;;3.10;99.90;;;;;;5053878;28;20044;-84
2024/01/08 10:21:13;;;;;;;2.40;2.30;;;3.20;99.90;;;;;;5054433;28;20048;-83
2024/01/08 10:23:40;;;;;;;1.70;1.60;;;3.10;99.90;;;;;;5047131;28;20087;-83
2024/01/08 10:26:10;;;;;;;1.30;1.30;;;3.30;99.90;;;;;;5054125;28;20678;-82
2024/01/08 10:28:37;;;;;;;4.25;3.95;;;3.30;99.90;;;;;;5037934;28;20087;-83
2024/01/08 10:31:08;;;;;;;1.50;1.40;;;3.30;99.90;;;;;;5048666;28;20044;-83
2024/01/08 10:33:34;;;;;;;1.30;1.30;;;3.20;99.90;;;;;;5051348;28;20121;-82
2024/01/08 10:36:04;;;;;;;1.45;1.38;;;3.10;99.90;;;;;;5050895;28;20055;-82
2024/01/08 10:38:35;;;;;;;1.50;1.40;;;3.20;99.90;;;;;;5032311;28;20070;-82
2024/01/08 10:41:02;;;;;;;1.45;1.38;;;3.30;99.90;;;;;;5050119;28;20044;-82
2024/01/08 10:43:28;;;;;;;1.48;1.40;;;3.30;99.90;;;;;;5067009;28;20098;-82
2024/01/08 10:46:04;;;;;;;1.58;1.48;;;3.50;99.90;;;;;;5051336;28;20048;-83
2024/01/08 10:48:42;;;;;;;1.30;1.30;;;3.50;99.90;;;;;;5049708;28;20043;-82
2024/01/08 10:51:09;;;;;;;1.50;1.40;;;3.40;99.90;;;;;;5051857;28;20570;-82
2024/01/08 10:53:44;;;;;;;1.38;1.38;;;3.30;99.90;;;;;;5048488;28;20514;-82
2024/01/08 10:56:15;;;;;;;1.30;1.30;;;3.40;99.90;;;;;;5058443;28;20063;-82
2024/01/08 10:59:08;;;;;;;1.30;1.30;;;3.80;99.90;;;;;;5056419;28;20137;-84
2024/01/08 11:01:36;;;;;;;1.52;1.42;;;3.70;99.90;;;;;;5055044;28;20111;-83
2024/01/08 11:04:06;;;;;;;1.60;1.50;;;3.70;99.90;;;;;;5054639;28;20488;-82
2024/01/08 11:06:38;;;;;;;1.50;1.40;;;3.50;99.90;;;;;;5056583;28;20631;-82
2024/01/08 11:09:04;;;;;;;1.50;1.40;;;3.30;99.90;;;;;;5053856;28;20466;-82
2024/01/08 11:11:33;;;;;;;1.52;1.42;;;3.40;99.90;;;;;;5039053;28;20071;-81
2024/01/08 11:14:03;;;;;;;1.60;1.50;;;3.30;99.90;;;;;;5051806;28;20413;-82
2024/01/08 11:16:30;;;;;;;1.50;1.40;;;3.20;99.90;;;;;;5051889;28;20413;-83
2024/01/08 11:19:17;;;;;;;1.45;1.40;;;3.10;99.90;;;;;;5057409;28;20071;-82
2024/01/08 11:21:44;;;;;;;1.60;1.50;;;3.10;99.90;;;;;;5056493;28;20047;-83
2024/01/08 11:24:09;;;;;;;1.52;1.42;;;3.20;99.90;;;;;;5052978;28;20047;-81
2024/01/08 11:26:43;;;;;;;1.58;1.48;;;3.30;99.90;;;;;;5058959;28;20048;-81
2024/01/08 11:29:10;;;;;;;1.52;1.42;;;3.30;90.00;;;;;;5042190;28;20052;-82
2024/01/08 11:31:39;;;;;;;1.48;1.40;;;3.40;66.90;;;;;;5055199;28;20138;-82
2024/01/08 11:34:25;;;;;;;1.40;1.40;;;3.50;41.30;;;;;;5053670;28;20127;-83
2024/01/08 11:37:07;;;;;;;1.60;1.50;;;3.70;35.10;;;;;;5054196;28;20052;-83
2024/01/08 11:39:38;;;;;;;1.50;1.40;;;3.80;38.30;;;;;;5045218;28;20157;-83
2024/01/08 11:42:06;;;;;;;1.60;1.50;;;3.80;24.10;;;;;;5057021;28;20130;-84
2024/01/08 11:44:32;;;;;;;1.30;1.30;;;3.70;18.50;;;;;;5041140;28;20518;-84
2024/01/08 11:46:59;;;;;;;1.50;1.40;;;3.70;24.20;;;;;;5057460;28;20036;-83
2024/01/08 11:49:25;;;;;;;1.60;1.50;;;3.90;21.30;;;;;;5055112;28;20941;-84
2024/01/08 11:51:55;;;;;;;1.52;1.42;;;3.90;17.20;;;;;;5048934;28;20044;-83
2024/01/08 11:54:21;;;;;;;1.63;1.52;;;3.70;1.00;;;;;;5035488;28;20127;-84
2024/01/08 11:56:47;;;;;;;1.65;1.55;;;3.70;2.50;;;;;;5058691;28;20561;-84
2024/01/08 11:59:12;;;;;;;1.63;1.52;;;3.90;7.10;;;;;;5076707;28;20050;-85
2024/01/08 12:01:38;;;;;;;1.75;1.65;;;4.10;26.60;;;;;;5058472;28;20051;-83
2024/01/08 12:04:04;;;;;;;1.75;1.65;;;3.90;2.90;;;;;;5060971;28;20074;-84
2024/01/08 12:06:30;;;;;;;1.75;1.65;;;3.80;3.20;;;;;;5048729;28;20080;-85
2024/01/08 12:08:56;;;;;;;1.77;1.67;;;3.80;1.00;;;;;;5032382;28;20779;-83
2024/01/08 12:11:26;;;;;;;7.43;7.05;;;4.00;12.40;;;;;;5051793;28;20044;-83
2024/01/08 12:13:53;;;;;;;1.88;1.77;;;4.10;18.60;;;;;;5051786;28;20493;-85
2024/01/08 12:16:19;;;;;;;1.83;1.73;;;4.00;5.80;;;;;;5051542;28;20080;-84
2024/01/08 12:18:45;;;;;;;2.05;1.95;;;3.90;1.00;;;;;;5033785;28;20136;-84
2024/01/08 12:21:11;;;;;;;2.03;1.92;;;4.10;3.70;;;;;;5033207;28;20850;-85
2024/01/08 12:23:37;;;;;;;2.08;1.98;;;3.90;1.00;;;;;;5049903;28;20044;-84
2024/01/08 12:26:03;;;;;;;1.98;1.88;;;3.80;1.20;;;;;;5052992;28;20078;-86
2024/01/08 12:28:34;;;;;;;2.08;1.98;;;3.70;1.00;;;;;;5050387;28;20055;-85
2024/01/08 12:31:01;;;;;;;1.85;1.75;;;3.80;4.90;;;;;;5052226;28;20051;-84
2024/01/08 12:33:27;;;;;;;1.85;1.75;;;3.60;5.40;;;;;;5052349;28;20125;-85
2024/01/08 12:35:56;;;;;;;1.80;1.70;;;3.60;13.80;;;;;;5050073;28;20558;-85
2024/01/08 12:38:22;;;;;;;1.75;1.65;;;3.60;12.30;;;;;;5032350;28;20545;-87
2024/01/08 12:40:51;;;;;;;1.77;1.67;;;3.80;17.00;;;;;;5037325;28;20049;-86
2024/01/08 12:43:19;;;;;;;1.65;1.55;;;3.60;14.80;;;;;;5055711;28;20044;-87
2024/01/08 12:45:52;;;;;;;1.75;1.65;;;3.60;6.10;;;;;;5048389;28;20510;-88
2024/01/08 12:48:18;;;;;;;1.75;1.65;;;3.60;13.10;;;;;;5048135;28;20122;-89
2024/01/08 12:50:44;;;;;;;1.75;1.65;;;3.70;14.00;;;;;;5034564;28;20754;-87
2024/01/08 12:53:09;;;;;;;1.70;1.60;;;3.80;30.60;;;;;;5048201;28;20141;-87
2024/01/08 12:55:38;;;;;;;1.83;1.73;;;3.70;8.60;;;;;;5064100;28;20060;-87
2024/01/08 12:58:04;;;;;;;1.77;1.67;;;3.80;15.70;;;;;;5032112;28;20068;-88